Time;durP1;ratioP1;P1;durP2;ratioP2;P2;SDS_P1;SDS_P2;PMS_P1;PMS_P2;Temp;Humidity;BMP_temperature;BMP_pressure;BME280_temperature;BME280_humidity;BME280_pressure;Samples;Min_cycle;Max_cycle;Signal;HPM_P1;HPM_P2
2022/12/27 00:01:59;;;;;;;2.30;1.40;;;;;;;7.71;100.00;99240.23;104618;1303;24784;-37
2022/12/27 00:04:26;;;;;;;5.50;2.40;;;;;;;7.77;100.00;99230.88;104714;1304;22550;-37
2022/12/27 00:06:51;;;;;;;1.90;1.50;;;;;;;7.59;100.00;99232.42;104767;1302;24385;-37
2022/12/27 00:09:17;;;;;;;1.90;1.30;;;;;;;7.60;100.00;99229.88;104347;1305;24357;-37
2022/12/27 00:11:43;;;;;;;4.50;1.30;;;;;;;7.45;100.00;99233.59;104687;1300;22657;-34
2022/12/27 00:14:09;;;;;;;1.80;0.80;;;;;;;7.37;100.00;99238.37;104719;1303;22642;-37
2022/12/27 00:16:35;;;;;;;2.30;1.40;;;;;;;7.38;100.00;99238.73;104620;1303;24293;-34
2022/12/27 00:19:01;;;;;;;0.90;0.70;;;;;;;7.30;100.00;99244.73;104651;1303;23037;-33
2022/12/27 00:21:26;;;;;;;0.90;0.60;;;;;;;7.51;100.00;99235.46;104358;1305;24409;-33
2022/12/27 00:23:53;;;;;;;1.50;0.60;;;;;;;7.55;100.00;99222.67;104461;1305;24388;-37
2022/12/27 00:26:21;;;;;;;2.00;0.60;;;;;;;7.62;100.00;99224.69;104688;1305;24287;-37
2022/12/27 00:28:47;;;;;;;0.80;0.50;;;;;;;7.76;100.00;99226.25;104799;1301;22669;-33
2022/12/27 00:31:13;;;;;;;1.50;0.60;;;;;;;7.72;100.00;99223.76;104544;1300;23046;-33
2022/12/27 00:33:40;;;;;;;3.60;0.90;;;;;;;7.69;100.00;99230.63;104721;1305;24395;-36
2022/12/27 00:36:07;;;;;;;0.70;0.40;;;;;;;7.72;100.00;99221.50;104533;1304;24355;-32
2022/12/27 00:38:32;;;;;;;0.40;0.30;;;;;;;7.62;100.00;99220.64;104789;1303;23060;-33
2022/12/27 00:40:58;;;;;;;1.80;0.60;;;;;;;7.71;100.00;99227.17;104743;1303;24299;-32
2022/12/27 00:43:24;;;;;;;2.30;0.20;;;;;;;7.61;100.00;99226.73;104668;1303;23188;-32
2022/12/27 00:45:50;;;;;;;1.40;0.70;;;;;;;7.58;100.00;99227.08;104676;1302;24384;-33
2022/12/27 00:48:15;;;;;;;1.40;0.90;;;;;;;7.22;100.00;99245.95;104689;1305;22710;-32
2022/12/27 00:50:42;;;;;;;0.90;0.30;;;;;;;7.02;100.00;99250.98;104585;1304;24269;-37
2022/12/27 00:53:07;;;;;;;0.20;0.10;;;;;;;6.78;100.00;99247.16;104634;1297;24374;-33
2022/12/27 00:55:33;;;;;;;4.60;0.20;;;;;;;6.45;100.00;99227.79;104733;1303;24281;-37
2022/12/27 00:57:59;;;;;;;2.10;0.40;;;;;;;6.24;100.00;99239.71;104686;1301;22656;-37
2022/12/27 01:00:25;;;;;;;0.70;0.20;;;;;;;6.11;100.00;99249.40;104632;1303;22752;-33
2022/12/27 01:02:50;;;;;;;2.80;0.40;;;;;;;5.95;100.00;99267.25;104745;1300;24294;-37
2022/12/27 01:05:16;;;;;;;0.30;0.20;;;;;;;5.78;100.00;99284.05;104746;1303;23043;-37
2022/12/27 01:07:42;;;;;;;0.20;0.10;;;;;;;5.72;100.00;99295.45;104590;1306;24301;-33
2022/12/27 01:10:08;;;;;;;0.50;0.10;;;;;;;5.57;100.00;99300.21;104667;1303;24345;-36
2022/12/27 01:12:34;;;;;;;0.60;0.30;;;;;;;5.65;100.00;99296.59;104770;1303;22686;-33
2022/12/27 01:15:00;;;;;;;0.70;0.20;;;;;;;5.61;100.00;99299.21;104734;1301;22770;-32
2022/12/27 01:17:27;;;;;;;0.30;0.20;;;;;;;5.66;100.00;99293.72;104615;1306;24252;-32
2022/12/27 01:19:53;;;;;;;0.30;0.20;;;;;;;5.96;100.00;99287.98;104748;1300;25378;-33
2022/12/27 01:22:19;;;;;;;0.70;0.20;;;;;;;6.02;100.00;99287.20;104708;1306;22949;-33
2022/12/27 01:24:44;;;;;;;0.80;0.20;;;;;;;5.83;100.00;99287.31;104624;1303;24386;-32
2022/12/27 01:27:10;;;;;;;0.30;0.20;;;;;;;5.81;100.00;99299.20;104553;1304;22675;-37
2022/12/27 01:29:36;;;;;;;0.70;0.20;;;;;;;5.98;100.00;99298.05;104473;1303;22646;-32
2022/12/27 01:32:02;;;;;;;0.00;0.00;;;;;;;5.84;100.00;99302.64;104658;1303;24409;-32
2022/12/27 01:34:28;;;;;;;0.50;0.20;;;;;;;5.86;100.00;99309.73;104778;1306;24270;-34
2022/12/27 01:36:54;;;;;;;0.90;0.40;;;;;;;5.85;100.00;99313.20;104716;1305;24292;-33
2022/12/27 01:39:20;;;;;;;0.80;0.20;;;;;;;5.92;100.00;99310.31;104401;1290;24411;-31
2022/12/27 01:44:30;;;;;;;5.40;0.40;;;;;;;6.06;100.00;99321.92;104669;1300;26666;-36
2022/12/27 01:46:56;;;;;;;0.00;0.00;;;;;;;6.03;100.00;99317.24;104771;1302;22916;-31
2022/12/27 01:49:21;;;;;;;0.40;0.30;;;;;;;6.22;100.00;99318.20;104655;1301;23048;-36
2022/12/27 01:51:47;;;;;;;0.70;0.50;;;;;;;6.08;100.00;99324.56;104585;1302;24398;-32
2022/12/27 01:54:13;;;;;;;1.40;0.30;;;;;;;6.06;100.00;99326.16;104456;1306;23170;-32
2022/12/27 01:56:39;;;;;;;2.30;0.30;;;;;;;6.21;100.00;99326.30;104494;1305;23175;-31
2022/12/27 01:59:06;;;;;;;0.50;0.30;;;;;;;6.10;100.00;99328.02;104537;1303;24444;-36
2022/12/27 02:01:34;;;;;;;0.50;0.20;;;;;;;6.19;100.00;99338.27;104726;1303;24283;-31
2022/12/27 02:04:08;;;;;;;1.40;0.40;;;;;;;6.03;100.00;99335.59;104689;1304;22876;-36
2022/12/27 02:06:34;;;;;;;1.30;0.40;;;;;;;6.17;100.00;99333.17;104587;1304;23171;-31
2022/12/27 02:09:32;;;;;;;0.90;0.40;;;;;;;6.14;100.00;99333.35;104760;1301;23406;-35
2022/12/27 02:12:00;;;;;;;0.70;0.40;;;;;;;6.17;100.00;99341.63;104697;1303;22675;-31
2022/12/27 02:14:29;;;;;;;0.20;0.20;;;;;;;6.17;100.00;99342.60;104668;1306;22671;-31
2022/12/27 02:16:59;;;;;;;2.70;0.80;;;;;;;6.10;100.00;99348.89;104666;1304;24296;-30
2022/12/27 02:19:44;;;;;;;2.00;0.70;;;;;;;6.29;100.00;99351.05;104653;1305;24385;-32
2022/12/27 02:25:51;;;;;;;2.80;0.40;;;;;;;5.93;100.00;99361.71;104599;1298;24312;-34
2022/12/27 02:28:37;;;;;;;0.60;0.40;;;;;;;5.87;100.00;99354.25;104649;1305;24398;-33
2022/12/27 02:31:05;;;;;;;0.80;0.30;;;;;;;5.72;100.00;99358.80;104783;1304;24289;-34
2022/12/27 02:33:33;;;;;;;0.40;0.20;;;;;;;5.71;100.00;99367.64;104699;1303;24829;-36
2022/12/27 02:36:02;;;;;;;0.70;0.50;;;;;;;5.78;100.00;99375.13;104650;1304;22678;-30
2022/12/27 02:38:33;;;;;;;0.70;0.50;;;;;;;5.78;100.00;99376.16;104789;1303;22563;-35
2022/12/27 02:55:03;;;;;;;1.10;0.70;;;;;;;5.83;100.00;99403.28;104710;1304;25511;-36
2022/12/27 02:57:44;;;;;;;1.40;0.70;;;;;;;5.74;100.00;99406.73;104560;1301;22848;-31
2022/12/27 03:03:22;;;;;;;1.70;0.80;;;;;;;5.76;100.00;99408.14;104733;1306;25448;-36
2022/12/27 03:09:06;;;;;;;1.10;0.60;;;;;;;5.67;100.00;99419.95;104634;1303;22659;-36
2022/12/27 03:17:10;;;;;;;3.50;0.80;;;;;;;5.43;100.00;99441.29;104766;1305;24253;-35
2022/12/27 03:27:32;;;;;;;4.50;0.70;;;;;;;4.58;100.00;99507.30;104627;1303;24364;-36
2022/12/27 03:35:18;;;;;;;2.90;0.50;;;;;;;3.54;100.00;99524.84;104460;1304;24275;-33
2022/12/27 03:40:40;;;;;;;4.90;0.40;;;;;;;3.28;100.00;99530.56;104712;1304;24301;-36
2022/12/27 03:43:10;;;;;;;8.80;1.30;;;;;;;3.10;100.00;99550.44;104761;1300;24380;-36
2022/12/27 03:48:41;;;;;;;6.70;0.70;;;;;;;2.84;100.00;99579.63;104609;1303;22668;-36
2022/12/27 03:51:07;;;;;;;7.10;1.00;;;;;;;2.74;100.00;99582.14;104623;1303;22574;-36
2022/12/27 03:53:40;;;;;;;8.00;0.50;;;;;;;2.75;100.00;99569.99;104577;1304;23045;-33
2022/12/27 03:56:06;;;;;;;2.70;1.00;;;;;;;2.90;100.00;99572.90;104680;1303;25402;-37
2022/12/27 03:58:32;;;;;;;4.70;0.50;;;;;;;2.94;100.00;99575.72;104642;1303;24385;-32
2022/12/27 04:00:58;;;;;;;8.80;0.40;;;;;;;3.03;100.00;99567.23;104845;1301;24296;-37
2022/12/27 04:03:24;;;;;;;5.30;0.30;;;;;;;3.00;100.00;99564.83;104744;1303;22803;-30
2022/12/27 04:05:50;;;;;;;7.10;0.60;;;;;;;3.00;100.00;99562.91;104686;1303;24282;-33
2022/12/27 04:34:40;;;;;;;8.00;0.90;;;;;;;2.52;100.00;99620.71;104767;1303;22559;-34
2022/12/27 05:14:27;;;;;;;0.40;0.20;;;;;;;2.26;100.00;99742.36;104350;1296;558233;-31
2022/12/27 05:16:54;;;;;;;17.40;0.90;;;;;;;2.43;100.00;99752.53;104233;1294;455966;-35
2022/12/27 05:19:20;;;;;;;14.10;0.80;;;;;;;2.43;100.00;99752.98;104623;1300;24328;-31
2022/12/27 05:26:44;;;;;;;0.30;0.20;;;;;;;2.35;100.00;99755.20;104615;1304;22942;-31
2022/12/27 05:29:10;;;;;;;2.70;0.70;;;;;;;2.35;100.00;99757.67;104669;1294;22672;-35
2022/12/27 05:31:35;;;;;;;3.30;0.70;;;;;;;2.39;100.00;99769.65;104662;1294;23036;-30
2022/12/27 05:34:01;;;;;;;2.10;0.30;;;;;;;2.50;100.00;99771.58;104611;1304;23032;-35
2022/12/27 05:36:27;;;;;;;4.20;0.70;;;;;;;2.47;100.00;99779.08;104534;1294;24391;-34
2022/12/27 05:38:53;;;;;;;0.90;0.60;;;;;;;2.29;100.00;99786.22;104645;1293;24424;-35
2022/12/27 05:41:19;;;;;;;5.80;0.60;;;;;;;2.23;100.00;99791.42;104706;1293;22611;-31
2022/12/27 05:43:45;;;;;;;0.60;0.40;;;;;;;2.40;100.00;99793.39;104655;1294;22826;-31
2022/12/27 05:46:16;;;;;;;2.50;0.30;;;;;;;2.49;100.00;99800.21;104669;1304;22832;-31
2022/12/27 05:48:41;;;;;;;0.40;0.30;;;;;;;2.44;100.00;99812.46;104622;1294;24350;-31
2022/12/27 05:51:16;;;;;;;3.30;1.00;;;;;;;2.65;100.00;99813.84;104653;1304;22825;-36
2022/12/27 05:53:41;;;;;;;0.90;0.50;;;;;;;2.53;100.00;99822.88;104604;1304;23206;-36
2022/12/27 05:56:09;;;;;;;3.50;0.60;;;;;;;2.70;100.00;99816.92;104610;1294;22675;-29
2022/12/27 05:58:35;;;;;;;2.80;0.70;;;;;;;2.68;100.00;99815.69;104585;1294;22589;-34
2022/12/27 06:01:05;;;;;;;0.80;0.40;;;;;;;2.51;100.00;99828.20;104724;1293;22653;-29
2022/12/27 06:03:31;;;;;;;0.80;0.20;;;;;;;2.53;100.00;99829.40;104568;1291;22681;-36
2022/12/27 06:06:00;;;;;;;14.80;0.50;;;;;;;2.39;100.00;99832.25;104665;1291;22799;-36
2022/12/27 06:08:27;;;;;;;1.20;0.40;;;;;;;2.45;100.00;99837.13;104677;1294;23161;-32
2022/12/27 06:11:02;;;;;;;1.30;0.20;;;;;;;2.27;100.00;99840.64;104579;1304;22853;-37
2022/12/27 06:13:27;;;;;;;1.60;0.50;;;;;;;2.37;100.00;99847.20;104705;1294;24456;-33
2022/12/27 06:15:53;;;;;;;4.40;1.20;;;;;;;2.18;100.00;99850.12;104577;1298;25453;-29
2022/12/27 06:18:19;;;;;;;11.70;1.30;;;;;;;2.23;100.00;99851.08;104638;1301;22670;-29
2022/12/27 06:20:44;;;;;;;5.20;0.40;;;;;;;2.35;100.00;99853.99;104555;1303;22673;-34
2022/12/27 06:23:10;;;;;;;1.10;0.30;;;;;;;2.35;100.00;99859.98;104532;1294;22564;-32
2022/12/27 06:25:37;;;;;;;4.40;0.70;;;;;;;2.23;100.00;99860.64;104594;1294;22574;-31
2022/12/27 06:28:03;;;;;;;1.40;0.20;;;;;;;2.15;100.00;99862.91;104567;1294;23050;-32
2022/12/27 06:30:28;;;;;;;6.30;1.00;;;;;;;2.22;100.00;99873.27;104310;1303;23044;-36
2022/12/27 06:32:54;;;;;;;2.30;1.00;;;;;;;2.19;100.00;99880.73;104626;1297;22730;-34
2022/12/27 06:35:19;;;;;;;6.00;0.60;;;;;;;2.30;100.00;99878.89;104478;1294;22676;-29
2022/12/27 06:37:45;;;;;;;4.90;0.80;;;;;;;2.38;100.00;99885.30;104611;1303;22574;-31
2022/12/27 06:40:11;;;;;;;0.50;0.30;;;;;;;2.34;100.00;99884.55;104596;1294;23007;-29
2022/12/27 06:42:37;;;;;;;3.90;0.50;;;;;;;2.29;100.00;99886.13;104679;1303;24421;-33
2022/12/27 06:45:05;;;;;;;6.60;0.90;;;;;;;2.17;100.00;99890.63;104671;1293;22680;-30
2022/12/27 06:47:31;;;;;;;4.70;0.50;;;;;;;2.13;100.00;99894.23;104686;1288;23301;-34
2022/12/27 06:49:57;;;;;;;7.30;1.00;;;;;;;2.25;100.00;99897.90;104683;1289;22670;-30
2022/12/27 06:52:23;;;;;;;4.80;2.10;;;;;;;2.26;100.00;99902.42;104588;1294;22666;-34
2022/12/27 06:54:48;;;;;;;12.50;8.50;;;;;;;2.30;100.00;99904.39;104559;1293;22809;-31
2022/12/27 06:57:14;;;;;;;24.90;6.80;;;;;;;2.50;100.00;99901.45;104559;1294;22562;-34
2022/12/27 06:59:40;;;;;;;2.30;0.80;;;;;;;2.46;100.00;99904.39;104553;1288;22656;-30
2022/12/27 07:02:06;;;;;;;5.40;1.40;;;;;;;2.50;100.00;99902.13;104551;1303;22759;-31
2022/12/27 07:04:31;;;;;;;2.70;1.00;;;;;;;2.33;100.00;99908.01;104551;1284;22939;-34
2022/12/27 07:06:57;;;;;;;6.70;1.20;;;;;;;2.32;100.00;99911.63;104643;1294;24430;-30
2022/12/27 07:09:23;;;;;;;11.00;0.80;;;;;;;2.23;100.00;99921.38;104628;1294;23054;-30
2022/12/27 07:11:49;;;;;;;2.70;0.60;;;;;;;2.21;100.00;99922.98;104603;1297;22654;-36
2022/12/27 07:14:14;;;;;;;12.30;0.60;;;;;;;2.27;100.00;99929.57;104645;1303;25294;-30
2022/12/27 07:16:40;;;;;;;4.30;1.10;;;;;;;2.41;100.00;99934.55;104644;1294;24310;-35
2022/12/27 07:19:06;;;;;;;14.90;2.10;;;;;;;2.33;100.00;99939.45;104611;1294;23028;-30
2022/12/27 07:21:32;;;;;;;5.60;1.10;;;;;;;2.42;100.00;99939.06;104515;1303;24299;-34
2022/12/27 07:23:57;;;;;;;3.80;0.70;;;;;;;2.48;100.00;99942.96;104703;1303;24494;-30
2022/12/27 07:26:27;;;;;;;11.10;0.70;;;;;;;2.50;100.00;99940.70;104585;1291;23044;-34
2022/12/27 07:28:53;;;;;;;2.80;0.50;;;;;;;2.36;100.00;99955.44;104610;1295;22679;-34
2022/12/27 07:31:21;;;;;;;6.30;1.00;;;;;;;2.18;100.00;99959.60;104482;1291;23176;-30
2022/12/27 07:33:47;;;;;;;8.80;0.70;;;;;;;2.09;100.00;99969.54;104589;1304;24422;-30
2022/12/27 07:36:16;;;;;;;14.40;1.60;;;;;;;2.15;100.00;99976.30;104520;1294;24507;-30
2022/12/27 07:38:41;;;;;;;18.50;1.00;;;;;;;2.00;100.00;99986.39;104547;1285;22576;-29
2022/12/27 07:41:09;;;;;;;1.90;0.50;;;;;;;2.08;100.00;99986.80;104581;1304;22956;-33
2022/12/27 07:43:34;;;;;;;12.90;0.70;;;;;;;2.09;100.00;99991.61;104544;1304;22821;-33
2022/12/27 07:46:05;;;;;;;3.90;1.00;;;;;;;2.14;100.00;99987.89;104527;1304;22809;-33
2022/12/27 07:48:31;;;;;;;5.50;0.60;;;;;;;2.01;100.00;99990.58;104633;1294;22656;-34
2022/12/27 07:50:56;;;;;;;2.90;0.60;;;;;;;2.00;100.00;99989.61;104600;1303;22669;-30
2022/12/27 07:53:22;;;;;;;10.30;1.70;;;;;;;1.98;100.00;99994.74;104594;1294;22575;-29
2022/12/27 07:55:49;;;;;;;3.90;0.90;;;;;;;1.86;100.00;100001.67;104549;1304;24230;-34
2022/12/27 07:58:16;;;;;;;2.10;0.60;;;;;;;1.76;100.00;100004.59;104600;1303;23044;-34
2022/12/27 08:00:44;;;;;;;2.30;0.70;;;;;;;1.85;100.00;100011.87;104515;1304;23056;-34
2022/12/27 08:03:10;;;;;;;2.20;0.20;;;;;;;1.95;100.00;100017.74;104617;1304;23248;-30
2022/12/27 08:05:36;;;;;;;3.20;0.40;;;;;;;1.93;100.00;100024.60;104614;1295;22663;-29
2022/12/27 08:08:02;;;;;;;4.50;1.20;;;;;;;1.94;100.00;100026.66;104471;1295;24303;-31
2022/12/27 08:10:28;;;;;;;2.80;0.70;;;;;;;1.98;100.00;100027.02;104579;1294;22795;-31
2022/12/27 08:12:53;;;;;;;2.50;0.40;;;;;;;2.16;100.00;100029.36;104436;1295;22945;-34
2022/12/27 08:15:36;;;;;;;22.60;1.20;;;;;;;2.20;100.00;100025.52;104537;1284;22561;-31
2022/12/27 08:18:02;;;;;;;4.30;0.90;;;;;;;2.32;100.00;100032.15;104511;1294;22673;-31
2022/12/27 08:20:29;;;;;;;21.60;9.00;;;;;;;2.48;100.00;100035.25;104544;1303;22638;-31
2022/12/27 08:22:55;;;;;;;1.30;0.70;;;;;;;2.41;100.00;100035.61;104565;1294;22675;-35
2022/12/27 08:25:20;;;;;;;1.10;0.50;;;;;;;2.48;100.00;100030.61;104573;1294;23027;-31
2022/12/27 08:27:46;;;;;;;5.90;1.40;;;;;;;2.35;100.00;100035.42;104510;1289;23174;-28
2022/12/27 08:30:12;;;;;;;21.50;1.00;;;;;;;2.63;100.00;100033.99;104526;1294;22820;-35
2022/12/27 08:32:38;;;;;;;0.90;0.50;;;;;;;2.57;100.00;100034.63;104585;1284;22686;-34
2022/12/27 08:35:04;;;;;;;1.00;0.30;;;;;;;2.75;100.00;100035.46;104539;1297;22761;-35
2022/12/27 08:37:30;;;;;;;5.80;1.30;;;;;;;2.94;100.00;100046.33;104483;1304;23212;-30
2022/12/27 08:39:55;;;;;;;4.70;1.30;;;;;;;3.09;100.00;100047.89;104570;1294;22620;-35
2022/12/27 08:42:21;;;;;;;2.20;0.80;;;;;;;3.10;100.00;100052.70;104560;1294;22929;-33
2022/12/27 08:44:47;;;;;;;4.70;0.70;;;;;;;3.26;100.00;100058.79;104560;1288;22822;-33
2022/12/27 08:47:13;;;;;;;5.40;0.90;;;;;;;3.19;100.00;100063.11;104634;1298;24422;-34
2022/12/27 08:49:38;;;;;;;11.30;0.80;;;;;;;3.16;100.00;100063.05;104312;1304;22815;-29
2022/12/27 08:52:04;;;;;;;7.50;1.00;;;;;;;3.42;100.00;100071.20;104495;1295;22665;-34
2022/12/27 08:54:30;;;;;;;0.90;0.40;;;;;;;3.59;100.00;100064.91;104511;1294;22612;-34
2022/12/27 08:56:56;;;;;;;6.90;0.80;;;;;;;3.55;100.00;100068.61;104483;1291;22562;-33
2022/12/27 08:59:21;;;;;;;5.30;0.80;;;;;;;3.34;100.00;100072.04;104563;1294;22663;-29
2022/12/27 09:01:47;;;;;;;9.60;1.40;;;;;;;3.42;100.00;100079.64;104295;1304;22959;-29
2022/12/27 09:04:12;;;;;;;1.80;0.60;;;;;;;3.27;100.00;100081.57;104566;1291;25559;-29
2022/12/27 09:06:39;;;;;;;1.80;0.60;;;;;;;3.31;100.00;100085.96;104630;1304;22669;-30
2022/12/27 09:09:05;;;;;;;5.70;0.70;;;;;;;3.47;100.00;100085.61;104570;1294;22551;-29
2022/12/27 09:11:32;;;;;;;6.90;1.20;;;;;;;3.42;100.00;100083.74;104512;1304;22654;-29
2022/12/27 09:13:59;;;;;;;6.80;1.40;;;;;;;3.18;100.00;100079.27;104644;1297;22639;-32
2022/12/27 09:16:26;;;;;;;3.50;0.70;;;;;;;3.01;100.00;100080.58;104625;1294;22763;-34
2022/12/27 09:18:53;;;;;;;18.60;1.80;;;;;;;3.00;100.00;100078.36;104564;1294;22657;-34
2022/12/27 09:21:21;;;;;;;2.90;0.70;;;;;;;3.27;100.00;100080.65;104590;1297;24272;-35
2022/12/27 09:23:47;;;;;;;7.30;1.00;;;;;;;3.33;100.00;100077.96;104590;1304;22665;-31
2022/12/27 09:26:21;;;;;;;7.30;1.90;;;;;;;3.52;100.00;100080.91;104609;1294;22553;-30
2022/12/27 09:28:47;;;;;;;11.60;1.30;;;;;;;3.71;100.00;100083.00;104755;1291;23915;-35
2022/12/27 09:31:13;;;;;;;15.80;3.40;;;;;;;3.75;98.57;100082.13;104755;1304;24286;-34
2022/12/27 09:33:39;;;;;;;0.80;0.40;;;;;;;3.52;99.08;100082.52;104748;1301;25455;-34
2022/12/27 09:36:07;;;;;;;2.60;0.20;;;;;;;3.47;99.29;100081.01;104762;1304;24339;-32
2022/12/27 09:38:33;;;;;;;2.40;0.40;;;;;;;3.69;99.62;100078.36;104782;1304;24255;-35
2022/12/27 09:41:00;;;;;;;4.60;0.70;;;;;;;3.51;98.87;100076.08;104780;1301;22826;-34
2022/12/27 09:43:38;;;;;;;3.00;1.20;;;;;;;3.53;98.35;100069.02;104800;1301;22660;-36
2022/12/27 09:46:04;;;;;;;2.40;1.30;;;;;;;3.59;98.17;100067.95;104700;1300;22903;-34
2022/12/27 09:48:33;;;;;;;3.40;1.20;;;;;;;3.58;97.84;100070.81;104765;1300;23027;-30
2022/12/27 09:51:02;;;;;;;3.70;0.90;;;;;;;3.54;97.54;100073.67;104799;1301;22562;-30
2022/12/27 09:53:38;;;;;;;3.60;0.80;;;;;;;3.70;95.72;100076.89;104720;1297;25264;-34
2022/12/27 09:56:04;;;;;;;3.20;0.60;;;;;;;3.61;95.08;100073.48;104809;1301;22653;-34
2022/12/27 09:58:46;;;;;;;3.50;0.80;;;;;;;3.61;94.70;100079.23;104674;1303;22756;-30
2022/12/27 10:01:22;;;;;;;8.60;1.40;;;;;;;3.81;93.84;100080.02;104710;1303;23036;-33
2022/12/27 10:03:48;;;;;;;33.10;0.70;;;;;;;3.89;93.60;100080.20;104743;1297;22596;-34
2022/12/27 10:06:38;;;;;;;3.80;0.80;;;;;;;4.19;92.00;100082.26;104849;1301;23183;-30
2022/12/27 10:09:27;;;;;;;3.90;0.80;;;;;;;4.47;89.42;100080.94;104715;1303;27068;-30
2022/12/27 10:12:09;;;;;;;3.10;0.70;;;;;;;4.27;91.45;100073.36;104816;1303;22664;-34
2022/12/27 10:14:58;;;;;;;2.60;0.90;;;;;;;4.48;89.05;100073.06;104610;1303;22813;-34
2022/12/27 10:17:52;;;;;;;9.40;2.30;;;;;;;4.07;89.82;100075.56;104681;1298;22660;-30
2022/12/27 10:20:26;;;;;;;8.40;1.40;;;;;;;4.45;87.16;100072.43;104699;1303;22679;-36
2022/12/27 10:22:53;;;;;;;3.00;0.90;;;;;;;4.35;88.36;100076.02;104676;1301;23042;-35
2022/12/27 10:25:20;;;;;;;1.00;0.60;;;;;;;4.19;89.03;100068.27;104707;1303;22559;-31
2022/12/27 10:27:47;;;;;;;1.60;0.80;;;;;;;4.09;88.65;100071.98;104713;1300;23180;-31
2022/12/27 10:30:15;;;;;;;5.50;1.90;;;;;;;4.28;87.49;100070.03;104697;1301;22558;-28
2022/12/27 10:32:41;;;;;;;2.90;1.20;;;;;;;4.46;86.64;100071.45;104886;1300;22647;-32
2022/12/27 10:35:07;;;;;;;7.70;2.10;;;;;;;4.16;87.40;100070.46;104668;1303;22822;-29
2022/12/27 10:37:32;;;;;;;17.50;7.70;;;;;;;4.15;87.77;100065.20;104679;1297;22590;-28
2022/12/27 10:40:03;;;;;;;2.80;0.90;;;;;;;4.10;87.50;100071.20;104462;1303;24187;-31
2022/12/27 10:42:36;;;;;;;2.50;0.70;;;;;;;4.17;87.07;100069.44;104647;1303;23041;-35
2022/12/27 10:45:08;;;;;;;2.60;1.00;;;;;;;4.05;88.05;100069.33;104735;1298;22571;-32
2022/12/27 10:47:34;;;;;;;1.00;0.50;;;;;;;4.40;85.64;100069.91;104729;1304;24410;-32
2022/12/27 10:50:05;;;;;;;2.50;0.90;;;;;;;4.33;85.54;100075.81;104775;1301;22674;-30
2022/12/27 10:52:31;;;;;;;6.50;1.40;;;;;;;4.29;85.24;100082.90;104810;1301;22663;-33
2022/12/27 10:54:57;;;;;;;0.40;0.30;;;;;;;4.15;85.99;100089.36;104761;1303;22560;-30
2022/12/27 10:57:34;;;;;;;2.10;1.30;;;;;;;4.23;86.63;100092.11;104931;1300;25441;-29
2022/12/27 11:00:16;;;;;;;12.80;0.80;;;;;;;4.17;86.61;100086.67;104777;1300;22798;-30
2022/12/27 11:02:56;;;;;;;11.00;0.70;;;;;;;4.31;84.58;100081.52;104741;1303;22811;-30
2022/12/27 11:45:58;;;;;;;8.70;0.90;;;;;;;4.11;88.29;100056.56;104270;1298;557546;-34
2022/12/27 11:48:35;;;;;;;3.50;0.90;;;;;;;4.24;88.93;100058.39;104050;1296;445237;-31
2022/12/27 11:51:24;;;;;;;2.70;0.50;;;;;;;4.26;87.54;100052.90;104560;1303;22793;-31
2022/12/27 11:54:12;;;;;;;2.20;0.70;;;;;;;4.35;87.17;100056.17;104558;1304;25246;-35
2022/12/27 11:56:40;;;;;;;1.40;0.40;;;;;;;4.44;88.23;100054.93;104652;1294;23165;-31
2022/12/27 11:59:21;;;;;;;9.60;1.30;;;;;;;4.43;87.13;100051.33;104547;1291;24357;-31
2022/12/27 12:01:57;;;;;;;1.80;0.80;;;;;;;4.68;86.37;100049.04;104185;1304;22819;-35
2022/12/27 12:04:43;;;;;;;5.20;1.70;;;;;;;5.01;85.51;100048.52;104505;1291;22701;-31
2022/12/27 12:07:40;;;;;;;3.60;1.70;;;;;;;5.48;83.69;100045.29;104479;1294;23110;-31
2022/12/27 12:10:22;;;;;;;3.70;0.80;;;;;;;5.83;81.14;100052.42;104527;1294;25274;-35
2022/12/27 12:13:08;;;;;;;2.60;1.30;;;;;;;5.62;80.28;100048.58;104644;1291;22559;-35
2022/12/27 12:16:06;;;;;;;19.30;4.70;;;;;;;5.70;79.89;100052.46;104570;1294;22805;-32
2022/12/27 12:19:00;;;;;;;1.30;0.50;;;;;;;5.54;78.97;100056.06;104506;1304;22799;-35
2022/12/27 12:21:32;;;;;;;4.00;2.00;;;;;;;5.22;79.73;100065.22;104623;1297;23131;-31
2022/12/27 12:24:22;;;;;;;2.50;0.90;;;;;;;5.09;80.35;100066.61;104629;1292;22549;-35
2022/12/27 12:26:57;;;;;;;5.80;0.80;;;;;;;4.75;82.82;100069.32;104488;1299;22670;-31
2022/12/27 12:29:38;;;;;;;5.80;1.70;;;;;;;4.48;84.78;100074.42;104333;1296;22756;-31
2022/12/27 12:32:20;;;;;;;9.00;0.90;;;;;;;4.36;86.61;100072.39;104538;1297;22670;-35
2022/12/27 12:35:18;;;;;;;5.70;0.60;;;;;;;4.46;85.57;100062.19;104531;1287;22828;-31
2022/12/27 12:38:07;;;;;;;12.80;1.50;;;;;;;4.21;86.61;100056.73;104502;1290;24222;-31
2022/12/27 12:40:50;;;;;;;2.60;0.90;;;;;;;4.47;85.53;100058.39;104504;1294;23037;-35
2022/12/27 12:43:40;;;;;;;1.20;0.60;;;;;;;4.33;85.84;100051.75;104515;1294;22732;-35
2022/12/27 12:46:18;;;;;;;2.50;0.90;;;;;;;4.33;85.19;100060.98;104653;1304;22626;-35
2022/12/27 12:48:58;;;;;;;1.50;0.70;;;;;;;4.39;86.47;100070.00;104560;1291;25540;-30
2022/12/27 12:51:41;;;;;;;9.00;1.30;;;;;;;4.19;86.48;100068.27;104564;1293;24406;-31
2022/12/27 12:54:23;;;;;;;6.50;1.10;;;;;;;4.02;87.99;100067.48;104528;1304;24248;-35
2022/12/27 12:57:06;;;;;;;2.90;0.60;;;;;;;4.08;88.22;100067.79;104608;1294;24401;-35
2022/12/27 12:59:48;;;;;;;10.80;1.20;;;;;;;4.05;87.69;100067.58;104563;1290;22787;-30
2022/12/27 13:02:37;;;;;;;4.40;0.70;;;;;;;4.12;87.55;100074.59;104466;1294;22795;-34
2022/12/27 13:05:25;;;;;;;10.80;1.70;;;;;;;4.03;88.08;100079.02;104556;1297;22685;-31
2022/12/27 13:08:08;;;;;;;2.10;1.20;;;;;;;3.99;89.11;100073.63;104623;1294;22676;-30
2022/12/27 13:10:49;;;;;;;1.70;1.20;;;;;;;4.15;88.13;100061.54;104388;1291;23032;-35
2022/12/27 13:13:38;;;;;;;1.50;0.60;;;;;;;4.11;88.15;100059.36;104523;1290;22663;-31
2022/12/27 13:16:15;;;;;;;0.50;0.30;;;;;;;4.22;87.41;100064.45;104564;1304;22755;-31
2022/12/27 13:19:07;;;;;;;1.50;0.50;;;;;;;4.09;88.39;100059.59;104509;1287;22787;-31
2022/12/27 13:21:56;;;;;;;2.40;1.00;;;;;;;4.00;89.32;100061.47;104595;1294;22591;-34
2022/12/27 13:24:30;;;;;;;7.80;2.40;;;;;;;4.08;88.58;100058.93;104474;1297;22949;-30
2022/12/27 13:27:20;;;;;;;6.20;1.90;;;;;;;4.10;88.19;100056.98;104606;1291;23028;-34
2022/12/27 13:30:02;;;;;;;5.30;0.80;;;;;;;4.16;88.39;100053.95;104101;1304;22669;-30
2022/12/27 13:32:50;;;;;;;5.90;0.80;;;;;;;4.05;89.15;100055.36;104339;1294;22786;-34
2022/12/27 13:35:32;;;;;;;2.60;0.40;;;;;;;4.04;88.82;100056.98;104493;1294;23266;-34
2022/12/27 13:38:21;;;;;;;0.70;0.50;;;;;;;4.11;88.58;100058.38;104527;1297;25368;-34
2022/12/27 13:41:11;;;;;;;1.40;0.60;;;;;;;4.04;88.01;100064.81;104522;1295;23134;-30
2022/12/27 13:43:55;;;;;;;1.00;0.60;;;;;;;4.09;88.40;100067.92;104321;1297;22826;-30
2022/12/27 13:46:53;;;;;;;6.80;0.50;;;;;;;4.05;88.02;100071.64;104113;1296;22673;-34
2022/12/27 13:49:30;;;;;;;8.00;1.00;;;;;;;4.13;87.05;100071.46;104573;1295;22795;-33
2022/12/27 13:52:28;;;;;;;2.40;0.70;;;;;;;4.03;87.13;100073.78;104651;1304;22564;-29
2022/12/27 13:55:15;;;;;;;2.00;0.80;;;;;;;4.28;87.92;100076.45;104350;1304;22763;-32
2022/12/27 13:58:12;;;;;;;1.50;0.60;;;;;;;4.38;87.43;100076.64;104471;1304;23053;-30
2022/12/27 14:00:54;;;;;;;4.90;1.40;;;;;;;4.15;87.71;100089.30;104559;1304;24759;-30
2022/12/27 14:03:38;;;;;;;2.70;0.80;;;;;;;4.09;88.62;100095.73;104351;1297;22674;-30
2022/12/27 14:06:16;;;;;;;3.30;1.00;;;;;;;4.16;88.41;100097.70;104496;1291;23042;-30
2022/12/27 14:09:06;;;;;;;7.40;1.00;;;;;;;3.93;89.57;100101.39;104540;1294;22806;-34
2022/12/27 14:11:50;;;;;;;1.70;0.90;;;;;;;3.94;89.82;100099.76;104520;1297;22578;-30
2022/12/27 14:14:15;;;;;;;;;;;;;;;3.79;90.75;100104.48;104569;1291;22672;-30
2022/12/27 14:17:02;;;;;;;8.50;1.80;;;;;;;3.78;91.10;100102.91;104492;1295;22793;-29
2022/12/27 14:19:47;;;;;;;4.10;1.20;;;;;;;3.63;92.22;100101.20;104363;1297;24228;-30
2022/12/27 14:22:28;;;;;;;6.90;1.30;;;;;;;3.72;91.60;100101.83;104595;1294;23153;-34
2022/12/27 14:25:23;;;;;;;3.30;1.20;;;;;;;3.65;91.88;100100.36;104453;1296;23043;-33